Time;durP1;ratioP1;P1;durP2;ratioP2;P2;SDS_P1;SDS_P2;PMS_P1;PMS_P2;Temp;Humidity;BMP_temperature;BMP_pressure;BME280_temperature;BME280_humidity;BME280_pressure;Samples;Min_cycle;Max_cycle;Signal;HPM_P1;HPM_P2
2021/12/03 00:00:47;;;;;;;39.72;31.10;;;;;;;;;;5012642;28;20034;-61
2021/12/03 00:03:15;;;;;;;37.03;30.60;;;;;;;;;;5013432;28;20373;-61
2021/12/03 00:05:42;;;;;;;41.05;31.35;;;;;;;;;;5016054;28;20050;-61
2021/12/03 00:08:09;;;;;;;36.05;32.17;;;;;;;;;;5016302;28;20576;-61
2021/12/03 00:10:37;;;;;;;42.63;29.40;;;;;;;;;;5015887;28;20084;-62
2021/12/03 00:13:06;;;;;;;38.55;29.92;;;;;;;;;;5016064;28;20079;-61
2021/12/03 00:15:35;;;;;;;39.42;30.05;;;;;;;;;;5015419;28;20041;-62
2021/12/03 00:18:03;;;;;;;39.92;31.30;;;;;;;;;;5015145;28;20363;-61
2021/12/03 00:20:34;;;;;;;40.10;32.05;;;;;;;;;;5013763;28;20038;-62
2021/12/03 00:23:04;;;;;;;39.83;31.42;;;;;;;;;;5014260;28;20060;-62
2021/12/03 00:25:32;;;;;;;42.33;32.38;;;;;;;;;;5013906;28;20045;-62
2021/12/03 00:27:59;;;;;;;41.92;32.47;;;;;;;;;;5013627;28;20407;-61
2021/12/03 00:30:33;;;;;;;49.03;33.65;;;;;;;;;;4996243;28;20108;-61
2021/12/03 00:33:00;;;;;;;43.55;30.15;;;;;;;;;;5013803;28;20068;-61
2021/12/03 00:35:27;;;;;;;36.28;31.08;;;;;;;;;;5015099;28;20446;-62
2021/12/03 00:37:54;;;;;;;47.95;32.65;;;;;;;;;;4996398;28;20457;-61
2021/12/03 00:40:28;;;;;;;37.28;30.85;;;;;;;;;;5014140;28;20042;-62
2021/12/03 00:42:56;;;;;;;43.60;31.55;;;;;;;;;;5013748;28;20054;-62
2021/12/03 00:45:23;;;;;;;37.40;31.30;;;;;;;;;;5014716;28;20608;-62
2021/12/03 00:47:50;;;;;;;39.15;29.60;;;;;;;;;;5014356;28;20049;-62
2021/12/03 00:50:20;;;;;;;37.38;31.17;;;;;;;;;;5014519;28;20049;-63
2021/12/03 00:52:47;;;;;;;38.25;30.27;;;;;;;;;;5015383;28;20576;-62
2021/12/03 00:55:15;;;;;;;45.80;33.00;;;;;;;;;;5015351;28;20034;-61
2021/12/03 00:57:42;;;;;;;33.90;28.77;;;;;;;;;;5016081;28;20041;-61
2021/12/03 01:00:13;;;;;;;37.65;31.42;;;;;;;;;;5015499;28;20046;-61
2021/12/03 01:02:40;;;;;;;40.13;31.92;;;;;;;;;;5015486;28;20141;-61
2021/12/03 01:05:08;;;;;;;37.88;31.20;;;;;;;;;;5015049;28;20100;-61
2021/12/03 01:07:36;;;;;;;34.88;29.90;;;;;;;;;;5015658;28;20100;-62
2021/12/03 01:10:04;;;;;;;34.72;29.13;;;;;;;;;;5014986;28;20045;-62
2021/12/03 01:12:31;;;;;;;36.42;28.15;;;;;;;;;;5015557;28;20045;-61
2021/12/03 01:14:58;;;;;;;40.45;29.05;;;;;;;;;;5014728;28;20034;-61
2021/12/03 01:17:26;;;;;;;37.80;31.45;;;;;;;;;;5015464;28;20072;-60
2021/12/03 01:19:53;;;;;;;40.35;29.73;;;;;;;;;;5015146;28;20496;-61
2021/12/03 01:22:20;;;;;;;42.40;31.75;;;;;;;;;;5015070;28;20042;-60
2021/12/03 01:24:47;;;;;;;39.28;30.13;;;;;;;;;;5015232;28;20551;-60
2021/12/03 01:27:13;;;;;;;37.80;30.63;;;;;;;;;;5014911;28;20088;-61
2021/12/03 01:29:40;;;;;;;35.55;29.08;;;;;;;;;;5015286;28;20069;-61
2021/12/03 01:32:07;;;;;;;36.60;31.27;;;;;;;;;;5014832;28;20374;-60
2021/12/03 01:34:34;;;;;;;35.58;29.42;;;;;;;;;;5014864;28;20037;-61
2021/12/03 01:37:01;;;;;;;36.17;29.48;;;;;;;;;;5014703;28;20038;-60
2021/12/03 01:39:28;;;;;;;39.25;32.13;;;;;;;;;;5014935;28;20053;-60
2021/12/03 01:41:55;;;;;;;40.47;32.53;;;;;;;;;;5008865;28;20054;-61
2021/12/03 01:44:22;;;;;;;37.20;30.65;;;;;;;;;;5008663;28;20466;-63
2021/12/03 01:46:49;;;;;;;42.60;31.13;;;;;;;;;;5014135;28;20046;-61
2021/12/03 01:49:16;;;;;;;36.80;32.80;;;;;;;;;;5014340;28;20467;-61
2021/12/03 01:51:43;;;;;;;35.83;28.45;;;;;;;;;;5014264;28;20496;-61
2021/12/03 01:54:10;;;;;;;42.42;33.92;;;;;;;;;;5014162;28;20056;-61
2021/12/03 01:56:39;;;;;;;38.03;31.25;;;;;;;;;;5014419;28;20038;-60
2021/12/03 01:59:07;;;;;;;38.08;32.28;;;;;;;;;;5013977;28;20041;-62
2021/12/03 02:01:34;;;;;;;38.55;33.72;;;;;;;;;;5014415;28;20050;-61
2021/12/03 02:04:03;;;;;;;36.58;31.80;;;;;;;;;;5013724;28;20423;-61
2021/12/03 02:06:31;;;;;;;45.03;33.70;;;;;;;;;;5014192;28;20447;-61
2021/12/03 02:08:58;;;;;;;43.47;33.08;;;;;;;;;;5013579;28;20176;-60
2021/12/03 02:11:26;;;;;;;43.63;35.47;;;;;;;;;;5014291;28;20052;-60
2021/12/03 02:13:53;;;;;;;41.75;34.45;;;;;;;;;;5013649;28;20056;-61
2021/12/03 02:16:21;;;;;;;39.78;33.70;;;;;;;;;;5013722;28;20048;-61
2021/12/03 02:18:49;;;;;;;39.60;34.25;;;;;;;;;;5013949;28;20069;-61
2021/12/03 02:21:16;;;;;;;34.30;30.65;;;;;;;;;;5013455;28;20041;-61
2021/12/03 02:23:45;;;;;;;38.83;33.50;;;;;;;;;;5014032;28;20072;-63
2021/12/03 02:26:13;;;;;;;36.45;32.55;;;;;;;;;;5012929;28;20046;-60
2021/12/03 02:28:43;;;;;;;35.90;31.75;;;;;;;;;;5013222;28;20053;-61
2021/12/03 02:31:11;;;;;;;38.28;34.15;;;;;;;;;;5007113;28;20044;-63
2021/12/03 02:33:39;;;;;;;37.75;33.65;;;;;;;;;;5013988;28;20475;-62
2021/12/03 02:36:07;;;;;;;39.45;33.38;;;;;;;;;;5013582;28;20064;-62
2021/12/03 02:38:34;;;;;;;38.15;31.80;;;;;;;;;;5013792;28;20085;-61
2021/12/03 02:41:01;;;;;;;37.15;30.92;;;;;;;;;;5013700;28;20046;-61
2021/12/03 02:43:28;;;;;;;38.70;34.03;;;;;;;;;;5013223;28;20528;-62
2021/12/03 02:45:57;;;;;;;38.97;32.15;;;;;;;;;;5013402;28;20041;-62
2021/12/03 02:48:25;;;;;;;35.00;30.58;;;;;;;;;;5013396;28;20034;-62
2021/12/03 02:50:53;;;;;;;38.50;27.90;;;;;;;;;;5013728;28;20046;-61
2021/12/03 02:53:21;;;;;;;32.28;28.17;;;;;;;;;;5013317;28;20054;-61
2021/12/03 02:55:49;;;;;;;33.80;28.42;;;;;;;;;;5013462;28;20133;-62
2021/12/03 02:58:16;;;;;;;31.67;28.08;;;;;;;;;;5013191;28;20042;-62
2021/12/03 03:00:44;;;;;;;33.33;27.90;;;;;;;;;;5013704;28;20433;-63
2021/12/03 03:03:11;;;;;;;33.55;28.35;;;;;;;;;;5013116;28;20053;-61
2021/12/03 03:05:39;;;;;;;31.85;28.48;;;;;;;;;;5013407;28;20041;-61
2021/12/03 03:08:06;;;;;;;30.50;27.05;;;;;;;;;;5013057;28;20042;-61
2021/12/03 03:10:40;;;;;;;26.98;24.15;;;;;;;;;;5013059;28;20053;-61
2021/12/03 03:13:07;;;;;;;27.60;24.63;;;;;;;;;;5013409;28;20053;-63
2021/12/03 03:15:35;;;;;;;25.92;22.00;;;;;;;;;;5012932;28;20121;-62
2021/12/03 03:18:23;;;;;;;25.08;22.38;;;;;;;;;;4995993;28;20068;-61
2021/12/03 03:20:53;;;;;;;25.65;22.13;;;;;;;;;;5012695;28;20133;-63
2021/12/03 03:23:20;;;;;;;23.95;21.20;;;;;;;;;;5013002;28;20052;-63
2021/12/03 03:25:48;;;;;;;24.73;21.33;;;;;;;;;;5012925;28;20049;-62
2021/12/03 03:28:16;;;;;;;24.55;18.98;;;;;;;;;;5013137;28;20045;-62
2021/12/03 03:30:46;;;;;;;20.77;18.50;;;;;;;;;;5013020;28;20447;-61
2021/12/03 03:33:13;;;;;;;21.55;17.80;;;;;;;;;;5013066;28;20045;-62
2021/12/03 03:35:40;;;;;;;22.70;18.83;;;;;;;;;;5012518;28;20214;-62
2021/12/03 03:38:08;;;;;;;22.13;19.17;;;;;;;;;;5013727;28;20038;-61
2021/12/03 03:40:36;;;;;;;20.95;17.77;;;;;;;;;;5017155;28;20385;-62
2021/12/03 03:43:04;;;;;;;23.33;18.30;;;;;;;;;;5016938;28;20471;-62
2021/12/03 03:45:32;;;;;;;21.58;18.70;;;;;;;;;;5017244;28;20108;-62
2021/12/03 03:47:59;;;;;;;23.45;20.23;;;;;;;;;;5016883;28;20448;-61
2021/12/03 03:50:27;;;;;;;24.70;19.30;;;;;;;;;;5016794;28;20489;-62
2021/12/03 03:52:55;;;;;;;24.73;21.38;;;;;;;;;;5016861;28;20404;-62
2021/12/03 03:55:22;;;;;;;23.60;20.42;;;;;;;;;;5016584;28;20076;-62
2021/12/03 03:57:53;;;;;;;24.77;19.65;;;;;;;;;;5016738;28;20045;-61
2021/12/03 04:00:27;;;;;;;24.80;20.00;;;;;;;;;;5016592;28;20519;-61
2021/12/03 04:02:54;;;;;;;;;;;;;;;;;;5016523;28;20053;-59
2021/12/03 04:05:21;;;;;;;21.92;19.63;;;;;;;;;;5016337;28;19922;-62
2021/12/03 04:07:48;;;;;;;24.70;21.98;;;;;;;;;;5016497;28;20073;-62
2021/12/03 04:10:15;;;;;;;22.58;19.55;;;;;;;;;;5016181;28;20528;-62
2021/12/03 04:12:42;;;;;;;21.50;18.52;;;;;;;;;;5016468;28;20507;-62
2021/12/03 04:15:11;;;;;;;22.85;18.17;;;;;;;;;;5016470;28;20078;-62
2021/12/03 04:17:38;;;;;;;19.23;16.95;;;;;;;;;;5016312;28;20063;-61
2021/12/03 04:20:11;;;;;;;18.63;15.23;;;;;;;;;;5016229;28;20046;-61
2021/12/03 04:22:38;;;;;;;12.10;10.90;;;;;;;;;;5016459;28;20404;-61
2021/12/03 04:25:07;;;;;;;11.27;10.18;;;;;;;;;;5015991;28;20050;-61
2021/12/03 04:27:34;;;;;;;12.07;9.88;;;;;;;;;;5015882;28;20081;-62
2021/12/03 04:30:02;;;;;;;8.32;7.53;;;;;;;;;;5015704;28;20130;-61
2021/12/03 04:32:29;;;;;;;9.20;8.30;;;;;;;;;;5003187;28;20082;-61
2021/12/03 04:34:56;;;;;;;10.93;8.15;;;;;;;;;;5016246;28;20374;-61
2021/12/03 04:37:23;;;;;;;6.05;5.45;;;;;;;;;;5014661;28;20361;-62
2021/12/03 04:39:51;;;;;;;6.72;5.93;;;;;;;;;;5015977;28;20073;-61
2021/12/03 04:42:18;;;;;;;6.60;5.53;;;;;;;;;;5015585;28;20042;-61
2021/12/03 04:44:46;;;;;;;8.00;6.28;;;;;;;;;;5015726;28;20077;-61
2021/12/03 04:47:12;;;;;;;10.73;5.95;;;;;;;;;;5015332;28;20045;-60
2021/12/03 04:49:39;;;;;;;5.97;5.38;;;;;;;;;;5015590;28;20133;-61
2021/12/03 04:52:07;;;;;;;4.78;4.38;;;;;;;;;;5015611;28;20397;-61
2021/12/03 04:54:34;;;;;;;5.65;5.05;;;;;;;;;;5015328;28;20405;-61
2021/12/03 04:57:01;;;;;;;5.93;4.97;;;;;;;;;;5015399;28;20064;-62
2021/12/03 04:59:28;;;;;;;4.78;4.30;;;;;;;;;;5015691;28;20042;-61
2021/12/03 05:01:57;;;;;;;4.72;4.07;;;;;;;;;;5015341;28;20045;-62
2021/12/03 05:04:25;;;;;;;5.57;5.07;;;;;;;;;;5015207;28;20046;-62
2021/12/03 05:07:52;;;;;;;4.53;4.00;;;;;;;;;;5015518;28;20041;-61
2021/12/03 05:09:43;;;;;;;4.05;3.65;;;;;;;;;;5002469;28;20570;-61
2021/12/03 05:12:10;;;;;;;4.40;4.00;;;;;;;;;;5015695;28;20054;-62
2021/12/03 05:14:37;;;;;;;2.92;2.67;;;;;;;;;;5014936;28;20037;-62
2021/12/03 05:17:04;;;;;;;2.63;2.22;;;;;;;;;;5015197;28;20044;-62
2021/12/03 05:19:31;;;;;;;2.28;2.08;;;;;;;;;;5015277;28;20038;-62
2021/12/03 05:21:58;;;;;;;2.10;1.90;;;;;;;;;;5014669;28;20128;-61
2021/12/03 05:24:25;;;;;;;2.65;2.10;;;;;;;;;;5015149;28;20065;-61
2021/12/03 05:26:52;;;;;;;1.95;1.80;;;;;;;;;;5015203;28;20046;-62
2021/12/03 05:29:19;;;;;;;2.55;2.35;;;;;;;;;;5014480;28;20054;-61
2021/12/03 05:31:46;;;;;;;2.28;2.13;;;;;;;;;;5013685;28;20056;-61
2021/12/03 05:34:28;;;;;;;2.35;2.20;;;;;;;;;;5014895;28;20054;-60
2021/12/03 05:36:55;;;;;;;2.65;2.45;;;;;;;;;;5014455;28;20050;-60
2021/12/03 05:39:22;;;;;;;2.83;2.58;;;;;;;;;;5014793;28;20089;-60
2021/12/03 05:41:49;;;;;;;2.42;2.22;;;;;;;;;;5014725;28;20042;-61
2021/12/03 05:44:16;;;;;;;2.83;2.50;;;;;;;;;;5014917;28;20034;-62
2021/12/03 05:46:43;;;;;;;2.53;2.35;;;;;;;;;;5014296;28;20097;-61
2021/12/03 05:49:11;;;;;;;5.93;2.42;;;;;;;;;;5014606;28;20096;-60
2021/12/03 05:51:37;;;;;;;2.33;2.10;;;;;;;;;;5014217;28;20041;-60
2021/12/03 05:54:04;;;;;;;2.28;2.10;;;;;;;;;;5014397;28;20081;-60
2021/12/03 05:56:31;;;;;;;2.50;2.30;;;;;;;;;;5014371;28;20061;-63
2021/12/03 05:58:59;;;;;;;2.17;2.00;;;;;;;;;;5014283;28;20042;-61
2021/12/03 06:01:26;;;;;;;4.82;1.95;;;;;;;;;;5013791;28;20053;-62
2021/12/03 06:03:54;;;;;;;2.92;2.50;;;;;;;;;;5014118;28;20042;-62
2021/12/03 06:06:21;;;;;;;1.80;1.70;;;;;;;;;;5014153;28;20489;-62
2021/12/03 06:08:49;;;;;;;2.55;2.05;;;;;;;;;;5014091;28;20044;-61
2021/12/03 06:11:16;;;;;;;2.55;2.35;;;;;;;;;;5014535;28;20049;-61
2021/12/03 06:13:43;;;;;;;2.05;1.73;;;;;;;;;;5013749;28;20484;-61
2021/12/03 06:16:12;;;;;;;4.63;3.20;;;;;;;;;;5014249;28;20041;-59
2021/12/03 06:18:40;;;;;;;1.77;1.67;;;;;;;;;;5013590;28;20057;-59
2021/12/03 06:21:09;;;;;;;1.73;1.63;;;;;;;;;;5013834;28;20038;-61
2021/12/03 06:23:36;;;;;;;1.83;1.73;;;;;;;;;;5013479;28;20129;-61
2021/12/03 06:26:04;;;;;;;2.83;2.00;;;;;;;;;;5013913;28;20049;-60
2021/12/03 06:28:32;;;;;;;2.75;2.55;;;;;;;;;;5013513;28;20496;-59
2021/12/03 06:30:59;;;;;;;2.58;2.38;;;;;;;;;;5013708;28;20556;-60
2021/12/03 06:33:26;;;;;;;2.38;2.17;;;;;;;;;;5010598;28;20042;-57
2021/12/03 06:35:53;;;;;;;3.38;2.78;;;;;;;;;;4999181;28;20057;-56
2021/12/03 06:38:21;;;;;;;2.20;1.80;;;;;;;;;;5013507;28;20103;-55
2021/12/03 06:40:50;;;;;;;1.55;1.45;;;;;;;;;;5012648;28;20042;-56
2021/12/03 06:43:17;;;;;;;2.20;2.00;;;;;;;;;;5012727;28;20046;-59
2021/12/03 06:45:45;;;;;;;1.90;1.80;;;;;;;;;;5012883;28;20073;-56
2021/12/03 06:48:14;;;;;;;1.83;1.70;;;;;;;;;;5013311;28;20046;-60
2021/12/03 06:50:43;;;;;;;2.30;1.98;;;;;;;;;;5014968;28;20044;-59
2021/12/03 06:53:13;;;;;;;3.15;2.85;;;;;;;;;;5014729;28;20432;-58
2021/12/03 06:58:10;;;;;;;2.03;1.88;;;;;;;;;;5014562;28;20440;-59
2021/12/03 07:00:37;;;;;;;1.80;1.70;;;;;;;;;;5015179;28;20045;-59
2021/12/03 07:03:05;;;;;;;1.67;1.58;;;;;;;;;;5012515;28;20038;-58
2021/12/03 07:05:33;;;;;;;1.80;1.70;;;;;;;;;;5012937;28;20108;-59
2021/12/03 07:08:00;;;;;;;3.78;1.75;;;;;;;;;;5013015;28;20116;-59
2021/12/03 07:10:27;;;;;;;1.92;1.73;;;;;;;;;;5013111;28;20054;-59
2021/12/03 07:12:54;;;;;;;2.22;1.98;;;;;;;;;;5012342;28;20053;-59
2021/12/03 07:15:21;;;;;;;2.33;1.95;;;;;;;;;;5012212;28;20058;-60
2021/12/03 07:17:50;;;;;;;2.85;2.38;;;;;;;;;;5012741;28;20045;-57
2021/12/03 07:20:19;;;;;;;2.22;1.60;;;;;;;;;;5011220;28;20049;-57
2021/12/03 07:22:47;;;;;;;3.78;3.40;;;;;;;;;;5000831;28;20057;-57
2021/12/03 07:25:14;;;;;;;4.00;2.53;;;;;;;;;;5011414;28;20377;-51
2021/12/03 07:27:41;;;;;;;5.63;4.20;;;;;;;;;;5010873;28;20054;-55
2021/12/03 07:30:14;;;;;;;4.45;3.80;;;;;;;;;;5008761;28;20516;-61
2021/12/03 07:32:41;;;;;;;4.32;2.97;;;;;;;;;;5008116;28;20100;-58
2021/12/03 07:35:08;;;;;;;3.50;3.20;;;;;;;;;;5008600;28;20049;-55
2021/12/03 07:37:35;;;;;;;2.75;2.47;;;;;;;;;;5008152;28;20038;-58
2021/12/03 07:40:04;;;;;;;3.25;2.78;;;;;;;;;;5006719;28;20045;-59
2021/12/03 07:42:35;;;;;;;4.03;2.92;;;;;;;;;;5009151;28;20046;-57
2021/12/03 07:45:06;;;;;;;4.07;3.28;;;;;;;;;;5008509;28;20046;-57
2021/12/03 07:47:33;;;;;;;4.50;2.90;;;;;;;;;;5009099;28;20567;-57
2021/12/03 07:50:00;;;;;;;6.45;4.00;;;;;;;;;;5006609;28;20057;-57
2021/12/03 07:52:26;;;;;;;5.05;3.60;;;;;;;;;;5010719;28;20088;-57
2021/12/03 07:54:53;;;;;;;4.47;3.20;;;;;;;;;;5009249;28;20141;-59
2021/12/03 07:57:20;;;;;;;2.70;2.47;;;;;;;;;;5011757;28;20046;-59
2021/12/03 07:59:47;;;;;;;2.85;2.25;;;;;;;;;;5011865;28;20493;-59
2021/12/03 08:02:14;;;;;;;8.93;4.32;;;;;;;;;;5010168;28;20046;-58
2021/12/03 08:04:41;;;;;;;12.07;7.20;;;;;;;;;;5010950;28;20045;-59
2021/12/03 08:07:09;;;;;;;5.93;4.20;;;;;;;;;;5011759;28;20382;-58
2021/12/03 08:09:37;;;;;;;4.60;3.03;;;;;;;;;;5012095;28;20046;-58
2021/12/03 08:12:06;;;;;;;9.43;5.70;;;;;;;;;;5012071;28;20389;-57
2021/12/03 08:14:33;;;;;;;8.27;6.25;;;;;;;;;;5011586;28;20045;-54
2021/12/03 08:17:00;;;;;;;6.30;4.60;;;;;;;;;;5002693;28;20050;-53
2021/12/03 08:19:27;;;;;;;4.63;3.08;;;;;;;;;;5011411;28;20052;-52
2021/12/03 08:21:54;;;;;;;3.83;2.78;;;;;;;;;;5011886;28;20449;-56
2021/12/03 08:24:21;;;;;;;3.35;2.58;;;;;;;;;;5008645;28;20111;-53
2021/12/03 08:26:48;;;;;;;2.38;2.05;;;;;;;;;;5015416;28;20462;-51
2021/12/03 08:29:15;;;;;;;3.65;2.95;;;;;;;;;;5014762;28;20448;-59
2021/12/03 08:31:41;;;;;;;4.15;2.63;;;;;;;;;;5015243;28;20045;-58
2021/12/03 08:34:08;;;;;;;9.98;2.80;;;;;;;;;;5017534;28;20041;-53
2021/12/03 08:36:35;;;;;;;2.95;2.17;;;;;;;;;;5014846;28;20069;-55
2021/12/03 08:39:03;;;;;;;7.20;5.78;;;;;;;;;;5015266;28;20501;-56
2021/12/03 08:41:30;;;;;;;7.63;5.55;;;;;;;;;;5015243;28;20558;-51
2021/12/03 08:43:57;;;;;;;4.00;3.60;;;;;;;;;;5015105;28;20054;-55
2021/12/03 08:46:31;;;;;;;3.42;3.13;;;;;;;;;;5014564;28;20050;-58
2021/12/03 08:49:28;;;;;;;4.90;3.40;;;;;;;;;;5015320;28;20084;-58
2021/12/03 08:55:09;;;;;;;3.88;3.58;;;;;;;;;;4988956;28;20046;-56
2021/12/03 08:57:35;;;;;;;2.63;2.42;;;;;;;;;;5014759;28;20088;-56
2021/12/03 09:00:11;;;;;;;4.85;2.78;;;;;;;;;;5015037;28;20056;-52
2021/12/03 09:02:39;;;;;;;2.65;2.05;;;;;;;;;;5014051;28;20038;-56
2021/12/03 09:05:07;;;;;;;2.40;2.20;;;;;;;;;;5014929;28;20065;-49
2021/12/03 09:07:35;;;;;;;2.67;2.10;;;;;;;;;;5014479;28;20117;-50
2021/12/03 09:10:04;;;;;;;3.70;3.33;;;;;;;;;;5014305;28;20042;-55
2021/12/03 09:12:31;;;;;;;4.15;2.97;;;;;;;;;;5014795;28;20132;-58
2021/12/03 09:15:04;;;;;;;3.17;2.88;;;;;;;;;;5013492;28;20061;-59
2021/12/03 09:22:50;;;;;;;2.90;2.63;;;;;;;;;;5012100;28;20068;-55
2021/12/03 09:25:30;;;;;;;3.25;2.78;;;;;;;;;;5011589;28;20632;-56
2021/12/03 09:28:01;;;;;;;2.58;2.35;;;;;;;;;;5013553;28;20138;-57
2021/12/03 09:30:36;;;;;;;3.00;2.70;;;;;;;;;;5014221;28;20042;-57
2021/12/03 09:33:08;;;;;;;3.08;2.88;;;;;;;;;;5014098;28;20048;-57
2021/12/03 09:35:41;;;;;;;3.50;3.20;;;;;;;;;;5012956;28;20046;-53
2021/12/03 09:38:08;;;;;;;3.70;3.38;;;;;;;;;;5012967;28;20045;-60
2021/12/03 09:40:36;;;;;;;6.20;3.30;;;;;;;;;;5013361;28;20034;-58
2021/12/03 09:43:05;;;;;;;3.80;3.40;;;;;;;;;;5012046;28;20053;-54
2021/12/03 09:45:33;;;;;;;4.10;3.72;;;;;;;;;;5009133;28;20050;-55
2021/12/03 09:48:07;;;;;;;4.95;3.60;;;;;;;;;;5004178;28;20449;-56
2021/12/03 09:50:34;;;;;;;4.18;3.78;;;;;;;;;;5013475;28;20541;-58
2021/12/03 09:55:43;;;;;;;6.00;3.70;;;;;;;;;;5013585;28;20057;-56
2021/12/03 09:58:39;;;;;;;4.65;3.63;;;;;;;;;;5013770;28;20041;-55
2021/12/03 10:01:14;;;;;;;4.30;3.65;;;;;;;;;;5013900;28;20046;-56
2021/12/03 10:17:46;;;;;;;4.20;3.80;;;;;;;;;;5012636;28;20054;-55
2021/12/03 10:34:05;;;;;;;7.32;4.20;;;;;;;;;;5006881;28;20444;-55
2021/12/03 10:36:46;;;;;;;6.13;5.22;;;;;;;;;;5012085;28;20551;-54
2021/12/03 10:47:47;;;;;;;9.70;4.82;;;;;;;;;;5011450;28;20481;-55
2021/12/03 10:50:30;;;;;;;4.97;4.47;;;;;;;;;;5013187;28;20045;-57
2021/12/03 11:01:43;;;;;;;5.75;4.57;;;;;;;;;;5012902;28;20037;-55
2021/12/03 11:42:33;;;;;;;8.80;5.70;;;;;;;;;;5011410;28;20152;-58
2021/12/03 12:16:46;;;;;;;6.45;5.85;;;;;;;;;;5014068;28;20038;-54
2021/12/03 12:56:52;;;;;;;15.45;13.00;;;;;;;;;;4983974;28;20053;-52
2021/12/03 13:12:58;;;;;;;13.13;11.73;;;;;;;;;;5008164;28;20527;-55
2021/12/03 13:38:47;;;;;;;14.63;12.65;;;;;;;;;;5011517;28;20050;-51
2021/12/03 14:03:44;;;;;;;10.65;9.65;;;;;;;;;;4997333;28;20046;-55
2021/12/03 14:39:26;;;;;;;13.93;12.43;;;;;;;;;;5010230;28;20038;-53
2021/12/03 14:42:10;;;;;;;12.38;11.18;;;;;;;;;;5009689;28;20042;-56
2021/12/03 14:55:39;;;;;;;17.40;14.68;;;;;;;;;;5011926;28;20128;-50
2021/12/03 14:58:12;;;;;;;15.48;13.75;;;;;;;;;;5012300;28;20034;-52
2021/12/03 15:08:14;;;;;;;18.73;16.73;;;;;;;;;;5011469;28;20065;-50
2021/12/03 15:11:04;;;;;;;21.23;17.50;;;;;;;;;;5009499;28;20041;-50
2021/12/03 15:13:50;;;;;;;17.95;14.85;;;;;;;;;;5009963;28;20034;-52
2021/12/03 15:21:50;;;;;;;11.60;10.30;;;;;;;;;;5011889;28;20042;-51
2021/12/03 15:29:39;;;;;;;10.57;9.57;;;;;;;;;;5011129;28;20050;-52
2021/12/03 15:32:09;;;;;;;9.52;8.15;;;;;;;;;;5009730;28;20041;-56
2021/12/03 15:56:34;;;;;;;15.05;12.00;;;;;;;;;;5010663;28;20053;-55
2021/12/03 16:04:33;;;;;;;15.00;11.40;;;;;;;;;;5008053;28;20046;-51
2021/12/03 16:10:27;;;;;;;11.90;9.88;;;;;;;;;;5004390;28;20117;-55
2021/12/03 16:45:30;;;;;;;13.98;12.48;;;;;;;;;;5010643;28;20042;-54
2021/12/03 16:51:10;;;;;;;12.93;10.45;;;;;;;;;;5015092;28;20378;-58
2021/12/03 16:53:39;;;;;;;13.20;11.88;;;;;;;;;;5014061;28;20113;-55
2021/12/03 16:56:21;;;;;;;17.95;13.50;;;;;;;;;;5014606;28;20476;-57
2021/12/03 16:58:48;;;;;;;;;;;;;;;;;;5013342;28;20576;-56
2021/12/03 17:25:13;;;;;;;12.25;10.85;;;;;;;;;;5012151;28;20045;-56
2021/12/03 17:30:52;;;;;;;12.77;11.10;;;;;;;;;;5014260;28;20046;-56
2021/12/03 17:59:48;;;;;;;11.02;9.93;;;;;;;;;;5004223;28;20035;-57
2021/12/03 18:02:25;;;;;;;11.27;10.05;;;;;;;;;;5007815;28;20038;-52
2021/12/03 18:05:03;;;;;;;11.73;10.45;;;;;;;;;;5009170;28;20038;-52
2021/12/03 18:07:39;;;;;;;12.93;11.15;;;;;;;;;;5005070;28;20042;-54
2021/12/03 18:10:33;;;;;;;11.48;9.82;;;;;;;;;;5006613;28;20042;-57
2021/12/03 18:43:28;;;;;;;14.05;10.60;;;;;;;;;;5009149;28;20038;-56
2021/12/03 18:56:33;;;;;;;11.60;9.73;;;;;;;;;;5008777;28;20042;-55
2021/12/03 18:59:07;;;;;;;10.82;9.73;;;;;;;;;;5004709;28;20042;-54
2021/12/03 19:01:37;;;;;;;12.05;10.13;;;;;;;;;;5008949;28;20132;-57
2021/12/03 19:06:51;;;;;;;11.52;9.40;;;;;;;;;;5008215;28;20096;-57
2021/12/03 19:09:25;;;;;;;11.65;10.40;;;;;;;;;;5008978;28;20038;-52
2021/12/03 19:14:21;;;;;;;11.80;10.40;;;;;;;;;;5005114;28;20033;-57
2021/12/03 19:16:49;;;;;;;11.98;10.15;;;;;;;;;;5008492;28;20108;-58
2021/12/03 19:19:16;;;;;;;12.60;10.70;;;;;;;;;;5011496;28;20038;-59
2021/12/03 19:21:46;;;;;;;12.02;10.73;;;;;;;;;;5009755;28;20042;-60
2021/12/03 19:24:15;;;;;;;10.93;9.73;;;;;;;;;;5008125;28;20049;-58
2021/12/03 19:26:44;;;;;;;11.25;10.13;;;;;;;;;;5010630;28;20038;-57
2021/12/03 19:29:13;;;;;;;11.70;10.48;;;;;;;;;;5008550;28;20140;-56
2021/12/03 19:31:42;;;;;;;13.27;10.88;;;;;;;;;;5006318;28;20030;-51
2021/12/03 19:34:10;;;;;;;11.15;9.80;;;;;;;;;;5006871;28;20034;-58
2021/12/03 19:36:42;;;;;;;12.00;10.18;;;;;;;;;;5000819;28;20157;-59
2021/12/03 19:39:12;;;;;;;14.25;10.43;;;;;;;;;;5008531;28;20072;-57
2021/12/03 19:41:51;;;;;;;10.55;9.35;;;;;;;;;;5005869;28;20046;-57
2021/12/03 19:44:33;;;;;;;13.25;10.68;;;;;;;;;;5005311;28;20042;-55
2021/12/03 19:47:00;;;;;;;10.15;9.13;;;;;;;;;;5007303;28;20074;-55
2021/12/03 19:51:59;;;;;;;9.93;8.75;;;;;;;;;;5005990;28;20131;-52
2021/12/03 19:54:26;;;;;;;9.60;8.43;;;;;;;;;;5005934;28;20038;-56
2021/12/03 19:56:55;;;;;;;10.70;9.57;;;;;;;;;;5004323;28;20038;-49
2021/12/03 19:59:23;;;;;;;9.63;8.73;;;;;;;;;;5003753;28;20397;-55
2021/12/03 20:01:50;;;;;;;8.90;8.00;;;;;;;;;;4990896;28;20069;-54
2021/12/03 20:04:17;;;;;;;9.02;8.13;;;;;;;;;;5007958;28;20042;-52
2021/12/03 20:06:45;;;;;;;9.43;8.30;;;;;;;;;;5006326;28;20473;-54
2021/12/03 20:09:27;;;;;;;12.40;8.05;;;;;;;;;;5003868;28;20046;-54
2021/12/03 20:11:57;;;;;;;9.10;8.20;;;;;;;;;;5004385;28;20461;-52
2021/12/03 20:14:24;;;;;;;7.53;6.70;;;;;;;;;;5006708;28;20452;-54
2021/12/03 20:17:02;;;;;;;11.82;7.15;;;;;;;;;;5006485;28;20042;-54
2021/12/03 20:19:35;;;;;;;8.93;6.53;;;;;;;;;;5003283;28;20053;-54
2021/12/03 20:27:06;;;;;;;5.43;4.93;;;;;;;;;;5010728;28;20054;-55
2021/12/03 20:29:37;;;;;;;7.57;6.45;;;;;;;;;;5007403;28;20050;-54
2021/12/03 20:37:49;;;;;;;6.60;5.90;;;;;;;;;;4978657;28;20046;-53
2021/12/03 20:40:18;;;;;;;6.18;4.80;;;;;;;;;;5009969;28;20042;-54
2021/12/03 20:48:03;;;;;;;5.25;4.75;;;;;;;;;;5010691;28;20049;-55
2021/12/03 21:09:39;;;;;;;5.07;4.13;;;;;;;;;;5007923;28;20485;-53
2021/12/03 21:12:16;;;;;;;5.80;4.50;;;;;;;;;;5010021;28;20382;-53
2021/12/03 21:14:51;;;;;;;4.75;4.22;;;;;;;;;;5008083;28;20392;-52
2021/12/03 21:20:25;;;;;;;3.80;3.42;;;;;;;;;;4928032;29;20040;-52
2021/12/03 21:22:57;;;;;;;5.07;4.07;;;;;;;;;;4928038;29;20048;-53
2021/12/03 21:25:27;;;;;;;4.03;3.55;;;;;;;;;;4968257;28;20046;-53
2021/12/03 21:28:05;;;;;;;5.10;4.18;;;;;;;;;;5009267;28;20053;-54
2021/12/03 21:43:28;;;;;;;3.92;3.55;;;;;;;;;;5012970;28;20045;-57
2021/12/03 21:45:56;;;;;;;3.67;3.35;;;;;;;;;;5012410;28;20080;-53
2021/12/03 21:48:23;;;;;;;3.58;3.28;;;;;;;;;;5014026;28;20088;-54
2021/12/03 21:50:51;;;;;;;3.53;3.22;;;;;;;;;;5014552;28;20125;-52
2021/12/03 21:53:17;;;;;;;4.07;3.70;;;;;;;;;;5014004;28;20049;-57
2021/12/03 21:55:47;;;;;;;4.03;3.70;;;;;;;;;;5014242;28;20042;-56
2021/12/03 21:58:15;;;;;;;4.70;4.13;;;;;;;;;;5014660;28;20046;-56
2021/12/03 22:00:42;;;;;;;4.32;3.95;;;;;;;;;;5013781;28;20382;-58
2021/12/03 22:03:11;;;;;;;4.15;3.38;;;;;;;;;;5014318;28;20042;-57
2021/12/03 22:05:38;;;;;;;4.95;3.03;;;;;;;;;;5013835;28;20045;-58
2021/12/03 22:08:10;;;;;;;4.10;3.45;;;;;;;;;;5013937;28;20547;-59
2021/12/03 22:10:38;;;;;;;3.55;3.25;;;;;;;;;;5013850;28;20526;-59
2021/12/03 22:13:05;;;;;;;3.83;3.40;;;;;;;;;;5014070;28;20034;-54
2021/12/03 22:15:32;;;;;;;5.22;4.78;;;;;;;;;;5013501;28;20042;-57
2021/12/03 22:17:59;;;;;;;3.72;3.42;;;;;;;;;;5014032;28;20467;-57
2021/12/03 22:20:26;;;;;;;4.20;3.10;;;;;;;;;;5013787;28;20416;-57
2021/12/03 22:22:53;;;;;;;3.97;3.40;;;;;;;;;;5014139;28;20046;-57
2021/12/03 22:25:20;;;;;;;3.17;2.90;;;;;;;;;;5014228;28;20056;-58
2021/12/03 22:27:47;;;;;;;3.28;2.72;;;;;;;;;;5013465;28;20060;-54
2021/12/03 22:30:14;;;;;;;3.40;3.10;;;;;;;;;;5013885;28;20556;-59
2021/12/03 22:32:41;;;;;;;4.25;3.90;;;;;;;;;;5013620;28;20500;-58
2021/12/03 22:35:08;;;;;;;6.47;3.58;;;;;;;;;;5005031;28;20050;-57
2021/12/03 22:37:35;;;;;;;4.68;4.18;;;;;;;;;;5013244;28;20049;-57
2021/12/03 22:40:03;;;;;;;3.42;2.95;;;;;;;;;;5014126;28;20044;-57
2021/12/03 22:42:30;;;;;;;4.20;3.80;;;;;;;;;;5013406;28;20108;-58
2021/12/03 22:44:58;;;;;;;3.45;3.15;;;;;;;;;;5013576;28;20046;-56
2021/12/03 22:47:36;;;;;;;4.85;4.15;;;;;;;;;;5013709;28;20073;-59
2021/12/03 22:50:17;;;;;;;3.30;3.00;;;;;;;;;;5013674;28;20042;-58
2021/12/03 22:52:46;;;;;;;4.05;3.70;;;;;;;;;;5012407;28;20052;-59
2021/12/03 22:55:13;;;;;;;9.27;3.90;;;;;;;;;;5013165;28;20042;-58
2021/12/03 22:57:39;;;;;;;5.32;4.75;;;;;;;;;;5013269;28;20572;-57
2021/12/03 23:00:17;;;;;;;5.57;4.15;;;;;;;;;;5013823;28;20042;-58
2021/12/03 23:02:43;;;;;;;4.03;3.63;;;;;;;;;;5008001;28;20507;-58
2021/12/03 23:05:10;;;;;;;5.07;4.30;;;;;;;;;;5012759;28;20038;-59
2021/12/03 23:07:37;;;;;;;5.15;4.60;;;;;;;;;;5012195;28;20061;-58
2021/12/03 23:10:05;;;;;;;6.60;3.90;;;;;;;;;;5013033;28;20046;-58
2021/12/03 23:12:31;;;;;;;5.15;4.45;;;;;;;;;;5013351;28;20054;-57